Pleasant Grove, Texas
Current Conditions -  °F | °C
As of 2:35 PM on Thursday 29 Jan 2015 (Local Time) from KRFI Reporting Station
Clear Clear  
Wind Chill: 73°   Ceiling: Unl
Heat Index: 73°   Visibility: 10mi
Dew Point: 44°   Wind: 7mph
Humidity: 35%   Direction: 330°NNW
Pressure: 30.2"   Gusts: NA
Location:  32.1449°N, 94.7416°W
Report Text: KRFI 292035Z AUTO 33006KT 10SM CLR 23/06 A3020 RMK AO2 T02280064
Loading
Personal Weather Stations






























Interactive Weather Map New forecast layout! Learn more

10-Day Weather Forecast

Advertisements
Track Severe Weather on mobile